createdAt,value
2023-03-17T00:00:05.986Z,89.00
2023-03-17T00:01:05.968Z,88.93
2023-03-17T00:02:05.963Z,89.04
2023-03-17T00:03:05.974Z,89.00
2023-03-17T00:04:06.116Z,89.00
2023-03-17T00:05:05.944Z,89.10
2023-03-17T00:06:05.892Z,89.00
2023-03-17T00:07:05.903Z,88.89
2023-03-17T00:08:05.891Z,88.89
2023-03-17T00:09:05.952Z,88.83
2023-03-17T00:10:05.846Z,88.93
2023-03-17T00:11:05.858Z,88.93
2023-03-17T00:12:05.847Z,89.14
2023-03-17T00:13:05.830Z,89.25
2023-03-17T00:14:05.807Z,89.35
2023-03-17T00:15:05.833Z,89.31
2023-03-17T00:16:05.847Z,89.35
2023-03-17T00:17:05.798Z,89.41
2023-03-17T00:18:05.760Z,89.31
2023-03-17T00:19:05.765Z,89.31
2023-03-17T00:20:05.736Z,89.20
2023-03-17T00:21:05.749Z,89.20
2023-03-17T00:22:05.716Z,89.10
2023-03-17T00:23:05.735Z,89.14
2023-03-17T00:24:05.747Z,89.20
2023-03-17T00:25:05.708Z,89.20
2023-03-17T00:26:05.686Z,89.25
2023-03-17T00:27:05.685Z,89.31
2023-03-17T00:28:05.655Z,89.31
2023-03-17T00:29:05.668Z,89.41
2023-03-17T00:30:05.636Z,89.20
2023-03-17T00:31:05.733Z,89.10
2023-03-17T00:32:05.620Z,89.00
2023-03-17T00:33:05.623Z,89.00
2023-03-17T00:34:05.573Z,89.00
2023-03-17T00:35:05.594Z,89.00
2023-03-17T00:36:05.633Z,88.89
2023-03-17T00:37:05.565Z,88.75
2023-03-17T00:38:05.561Z,88.43
2023-03-17T00:39:05.544Z,88.33
2023-03-17T00:40:05.538Z,88.33
2023-03-17T00:41:05.540Z,88.23
2023-03-17T00:42:05.517Z,87.71
2023-03-17T00:43:05.572Z,87.50
2023-03-17T00:44:05.474Z,87.29
2023-03-17T00:45:05.485Z,87.04
2023-03-17T00:46:05.454Z,87.08
2023-03-17T00:47:05.490Z,87.08
2023-03-17T00:48:05.419Z,87.08
2023-03-17T00:49:05.437Z,87.19
2023-03-17T00:50:05.394Z,87.29
2023-03-17T00:51:05.468Z,87.29
2023-03-17T00:52:05.373Z,87.40
2023-03-17T00:53:05.388Z,87.50
2023-03-17T00:54:05.348Z,87.54
2023-03-17T00:55:05.363Z,87.65
2023-03-17T00:56:05.342Z,87.75
2023-03-17T00:57:05.350Z,87.96
2023-03-17T00:58:05.310Z,88.17
2023-03-17T00:59:05.318Z,88.27
2023-03-17T01:00:05.294Z,88.37
2023-03-17T01:01:05.381Z,88.27
2023-03-17T01:02:05.306Z,88.37
2023-03-17T01:03:05.287Z,88.58
2023-03-17T01:04:05.259Z,88.48
2023-03-17T01:05:06.740Z,88.06
2023-03-17T01:06:05.231Z,87.85
2023-03-17T01:07:05.237Z,87.65
2023-03-17T01:08:05.208Z,87.19
2023-03-17T01:09:05.220Z,86.88
2023-03-17T01:10:05.218Z,86.98
2023-03-17T01:11:05.160Z,86.88
2023-03-17T01:12:05.180Z,86.88
2023-03-17T01:13:05.149Z,86.77
2023-03-17T01:14:05.165Z,86.57
2023-03-17T01:15:05.133Z,86.00
2023-03-17T01:16:05.140Z,85.38
2023-03-17T01:17:05.098Z,84.86
2023-03-17T01:18:05.113Z,84.51
2023-03-17T01:19:05.075Z,84.30
2023-03-17T01:20:05.084Z,84.20
2023-03-17T01:21:05.080Z,84.09
2023-03-17T01:22:05.056Z,83.99
2023-03-17T01:23:05.025Z,83.99
2023-03-17T01:24:05.047Z,84.03
2023-03-17T01:25:05.026Z,84.23
2023-03-17T01:26:05.046Z,84.44
2023-03-17T01:27:05.045Z,84.75
2023-03-17T01:28:04.999Z,84.96
2023-03-17T01:29:04.975Z,85.17
2023-03-17T01:30:04.978Z,85.31
2023-03-17T01:31:04.950Z,85.42
2023-03-17T01:32:04.957Z,85.73
2023-03-17T01:33:04.960Z,85.83
2023-03-17T01:34:04.944Z,86.04
2023-03-17T01:35:04.898Z,86.15
2023-03-17T01:36:04.916Z,86.15
2023-03-17T01:37:04.900Z,86.60
2023-03-17T01:38:04.892Z,86.71
2023-03-17T01:39:04.848Z,86.81
2023-03-17T01:40:04.864Z,86.81
2023-03-17T01:41:04.826Z,86.81
2023-03-17T01:42:04.855Z,86.81
2023-03-17T01:43:04.820Z,86.91
2023-03-17T01:44:04.853Z,87.02
2023-03-17T01:45:04.798Z,87.02
2023-03-17T01:46:04.856Z,87.02
2023-03-17T01:47:04.764Z,87.02
2023-03-17T01:48:04.774Z,87.02
2023-03-17T01:49:04.742Z,87.02
2023-03-17T01:50:04.762Z,87.23
2023-03-17T01:51:04.720Z,87.37
2023-03-17T01:52:04.726Z,87.58
2023-03-17T01:53:04.715Z,87.79
2023-03-17T01:54:04.704Z,87.89
2023-03-17T01:55:04.677Z,87.99
2023-03-17T01:56:04.696Z,88.06
2023-03-17T01:57:04.652Z,88.06
2023-03-17T01:58:04.665Z,87.99
2023-03-17T01:59:04.634Z,87.89
2023-03-17T02:00:04.637Z,87.89
2023-03-17T02:01:04.649Z,87.99
2023-03-17T02:02:04.630Z,88.10
2023-03-17T02:03:04.598Z,88.10
2023-03-17T02:04:04.739Z,88.10
2023-03-17T02:05:04.585Z,87.99
2023-03-17T02:06:04.572Z,88.10
2023-03-17T02:07:04.556Z,88.31
2023-03-17T02:08:04.553Z,88.31
2023-03-17T02:09:04.514Z,88.20
2023-03-17T02:10:04.527Z,88.10
2023-03-17T02:11:04.504Z,88.10
2023-03-17T02:12:04.513Z,88.31
2023-03-17T02:13:04.490Z,88.42
2023-03-17T02:14:04.482Z,88.42
2023-03-17T02:15:04.466Z,88.45
2023-03-17T02:16:04.640Z,88.56
2023-03-17T02:17:04.420Z,88.76
2023-03-17T02:18:04.448Z,88.76
2023-03-17T02:19:04.413Z,88.87
2023-03-17T02:20:04.436Z,88.98
2023-03-17T02:21:04.390Z,89.08
2023-03-17T02:22:04.400Z,89.08
2023-03-17T02:23:04.364Z,89.43
2023-03-17T02:24:04.373Z,89.75
2023-03-17T02:25:04.359Z,89.75
2023-03-17T02:26:04.370Z,89.75
2023-03-17T02:27:04.391Z,89.75
2023-03-17T02:28:04.374Z,89.75
2023-03-17T02:29:04.322Z,89.85
2023-03-17T02:30:04.342Z,90.00
2023-03-17T02:31:04.337Z,90.10
2023-03-17T02:32:04.324Z,90.31
2023-03-17T02:33:04.297Z,90.52
2023-03-17T02:34:04.258Z,91.14
2023-03-17T02:35:04.270Z,91.14
2023-03-17T02:36:04.558Z,91.04
2023-03-17T02:37:04.203Z,90.93
2023-03-17T02:38:04.212Z,90.83
2023-03-17T02:39:04.222Z,90.72
2023-03-17T02:40:04.223Z,90.72
2023-03-17T02:41:04.164Z,90.62
2023-03-17T02:42:04.198Z,90.62
2023-03-17T02:43:04.142Z,90.62
2023-03-17T02:44:05.084Z,90.52
2023-03-17T02:45:04.220Z,90.52
2023-03-17T02:46:04.173Z,90.41
2023-03-17T02:47:04.092Z,90.41
2023-03-17T02:48:04.132Z,90.26
2023-03-17T02:49:04.086Z,90.47
2023-03-17T02:50:04.097Z,90.37
2023-03-17T02:51:04.057Z,90.16
2023-03-17T02:52:04.066Z,90.06
2023-03-17T02:53:04.023Z,89.85
2023-03-17T02:54:04.061Z,89.75
2023-03-17T02:55:04.034Z,89.75
2023-03-17T02:56:04.022Z,89.75
2023-03-17T02:57:03.983Z,89.50
2023-03-17T02:58:04.005Z,89.39
2023-03-17T02:59:03.973Z,89.29
2023-03-17T03:00:03.998Z,89.08
2023-03-17T03:01:03.977Z,89.08
2023-03-17T03:02:03.958Z,88.98
2023-03-17T03:03:03.929Z,88.87
2023-03-17T03:04:03.950Z,88.76
2023-03-17T03:05:03.910Z,88.66
2023-03-17T03:06:04.621Z,88.56
2023-03-17T03:07:03.897Z,88.60
2023-03-17T03:08:03.891Z,88.81
2023-03-17T03:09:03.861Z,88.91
2023-03-17T03:10:03.883Z,89.01
2023-03-17T03:11:03.833Z,89.01
2023-03-17T03:12:03.861Z,89.22
2023-03-17T03:13:03.810Z,89.32
2023-03-17T03:14:03.823Z,89.54
2023-03-17T03:15:03.796Z,89.75
2023-03-17T03:16:03.874Z,89.75
2023-03-17T03:17:03.793Z,89.64
2023-03-17T03:18:03.782Z,89.43
2023-03-17T03:19:03.732Z,89.32
2023-03-17T03:20:03.752Z,89.32
2023-03-17T03:21:03.735Z,89.58
2023-03-17T03:22:03.769Z,89.47
2023-03-17T03:23:03.691Z,89.58
2023-03-17T03:24:03.719Z,89.58
2023-03-17T03:25:03.681Z,89.78
2023-03-17T03:26:03.711Z,89.89
2023-03-17T03:27:03.661Z,89.93
2023-03-17T03:28:03.694Z,90.03
2023-03-17T03:29:03.649Z,90.14
2023-03-17T03:30:03.641Z,90.35
2023-03-17T03:31:03.701Z,90.77
2023-03-17T03:32:03.654Z,90.97
2023-03-17T03:33:03.601Z,90.97
2023-03-17T03:34:03.611Z,90.97
2023-03-17T03:35:03.576Z,90.97
2023-03-17T03:36:03.666Z,90.97
2023-03-17T03:37:03.562Z,91.12
2023-03-17T03:38:03.552Z,91.22
2023-03-17T03:39:03.518Z,91.22
2023-03-17T03:40:03.593Z,91.22
2023-03-17T03:41:03.511Z,91.33
2023-03-17T03:42:03.520Z,91.43
2023-03-17T03:43:12.988Z,91.64
2023-03-17T03:44:04.495Z,91.64
2023-03-17T03:45:03.452Z,91.75
2023-03-17T03:46:03.523Z,91.75
2023-03-17T03:47:03.438Z,91.75
2023-03-17T03:48:03.453Z,91.89
2023-03-17T03:49:03.433Z,92.10
2023-03-17T03:50:03.425Z,92.16
2023-03-17T03:51:03.392Z,92.31
2023-03-17T03:52:03.401Z,92.21
2023-03-17T03:53:03.366Z,92.21
2023-03-17T03:54:03.374Z,92.21
2023-03-17T03:55:03.339Z,92.21
2023-03-17T03:56:03.353Z,92.21
2023-03-17T03:57:03.313Z,92.41
2023-03-17T03:58:03.332Z,92.63
2023-03-17T03:59:03.306Z,92.63
2023-03-17T04:00:03.310Z,92.52
2023-03-17T04:01:03.276Z,92.41
2023-03-17T04:02:03.302Z,92.41
2023-03-17T04:03:03.303Z,92.41
2023-03-17T04:04:03.276Z,92.63
2023-03-17T04:05:03.360Z,92.73
2023-03-17T04:06:03.250Z,92.73
2023-03-17T04:07:03.213Z,92.73
2023-03-17T04:08:03.222Z,92.73
2023-03-17T04:09:03.194Z,92.73
2023-03-17T04:10:03.651Z,92.77
2023-03-17T04:11:03.194Z,92.77
2023-03-17T04:12:03.188Z,92.66
2023-03-17T04:13:03.141Z,92.56
2023-03-17T04:14:03.150Z,92.66
2023-03-17T04:15:03.133Z,92.88
2023-03-17T04:16:03.168Z,92.98
2023-03-17T04:17:03.102Z,93.08
2023-03-17T04:18:03.123Z,93.19
2023-03-17T04:19:03.099Z,93.29
2023-03-17T04:20:03.087Z,93.29
2023-03-17T04:21:03.066Z,93.08
2023-03-17T04:22:03.076Z,93.08
2023-03-17T04:23:03.028Z,93.08
2023-03-17T04:24:03.038Z,92.98
2023-03-17T04:25:03.002Z,92.88
2023-03-17T04:26:03.029Z,92.66
2023-03-17T04:27:04.873Z,92.56
2023-03-17T04:28:03.016Z,92.56
2023-03-17T04:29:02.978Z,92.66
2023-03-17T04:30:02.987Z,92.77
2023-03-17T04:31:02.952Z,92.77
2023-03-17T04:32:02.988Z,92.82
2023-03-17T04:33:03.026Z,92.71
2023-03-17T04:34:02.928Z,92.71
2023-03-17T04:35:02.899Z,92.82
2023-03-17T04:36:02.951Z,92.92
2023-03-17T04:37:02.866Z,93.23
2023-03-17T04:38:02.898Z,93.54
2023-03-17T04:39:02.857Z,93.76
2023-03-17T04:40:02.875Z,93.86
2023-03-17T04:41:02.839Z,93.86
2023-03-17T04:42:02.866Z,93.76
2023-03-17T04:43:03.620Z,93.65
2023-03-17T04:44:02.854Z,93.65
2023-03-17T04:45:02.823Z,93.65
2023-03-17T04:46:02.910Z,93.54
2023-03-17T04:47:02.793Z,93.44
2023-03-17T04:48:02.794Z,93.59
2023-03-17T04:49:02.752Z,93.59
2023-03-17T04:50:02.810Z,93.59
2023-03-17T04:51:02.745Z,93.59
2023-03-17T04:52:02.736Z,93.59
2023-03-17T04:53:02.773Z,93.80
2023-03-17T04:54:02.738Z,94.01
2023-03-17T04:55:02.707Z,94.01
2023-03-17T04:56:02.729Z,94.01
2023-03-17T04:57:02.671Z,94.01
2023-03-17T04:58:02.676Z,94.01
2023-03-17T04:59:02.645Z,94.01
2023-03-17T05:00:02.687Z,94.11
2023-03-17T05:01:02.680Z,94.32
2023-03-17T05:02:02.691Z,94.42
2023-03-17T05:03:02.862Z,94.42
2023-03-17T05:04:02.625Z,94.42
2023-03-17T05:05:02.611Z,94.46
2023-03-17T05:06:02.610Z,94.36
2023-03-17T05:07:02.579Z,94.36
2023-03-17T05:08:02.588Z,94.26
2023-03-17T05:09:02.547Z,94.26
2023-03-17T05:10:02.556Z,94.26
2023-03-17T05:11:02.741Z,94.36
2023-03-17T05:12:02.539Z,94.46
2023-03-17T05:13:02.494Z,94.46
2023-03-17T05:14:02.552Z,94.46
2023-03-17T05:15:02.465Z,94.57
2023-03-17T05:16:02.487Z,94.89
2023-03-17T05:17:02.459Z,95.20
2023-03-17T05:18:04.916Z,95.31
2023-03-17T05:19:02.422Z,95.31
2023-03-17T05:20:02.464Z,95.09
2023-03-17T05:21:02.459Z,95.09
2023-03-17T05:22:02.425Z,95.09
2023-03-17T05:23:02.381Z,94.99
2023-03-17T05:24:02.394Z,94.99
2023-03-17T05:25:02.376Z,94.89
2023-03-17T05:26:02.356Z,94.78
2023-03-17T05:27:02.405Z,94.78
2023-03-17T05:28:02.330Z,94.78
2023-03-17T05:29:02.445Z,94.78
2023-03-17T05:30:03.308Z,94.78
2023-03-17T05:31:02.429Z,94.78
2023-03-17T05:32:02.327Z,94.78
2023-03-17T05:33:02.361Z,94.78
2023-03-17T05:34:02.305Z,94.78
2023-03-17T05:35:02.262Z,94.57
2023-03-17T05:36:02.314Z,94.46
2023-03-17T05:37:02.262Z,94.46
2023-03-17T05:38:02.230Z,94.46
2023-03-17T05:39:02.250Z,94.57
2023-03-17T05:40:02.224Z,94.57
2023-03-17T05:41:02.210Z,94.68
2023-03-17T05:42:02.180Z,94.68
2023-03-17T05:43:02.280Z,94.78
2023-03-17T05:44:02.158Z,94.89
2023-03-17T05:45:02.183Z,94.95
2023-03-17T05:46:02.176Z,95.05
2023-03-17T05:47:02.147Z,95.15
2023-03-17T05:48:02.122Z,95.05
2023-03-17T05:49:02.135Z,94.90
2023-03-17T05:50:02.133Z,94.70
2023-03-17T05:51:02.420Z,94.59
2023-03-17T05:52:02.067Z,94.49
2023-03-17T05:53:02.069Z,94.38
2023-03-17T05:54:02.051Z,94.27
2023-03-17T05:55:02.171Z,94.17
2023-03-17T05:56:02.056Z,94.17
2023-03-17T05:57:02.080Z,94.17
2023-03-17T05:58:02.000Z,94.13
2023-03-17T05:59:01.997Z,94.13
2023-03-17T06:00:01.982Z,94.02
2023-03-17T06:01:02.004Z,93.92
2023-03-17T06:02:02.008Z,93.92
2023-03-17T06:03:01.998Z,93.67
2023-03-17T06:04:01.972Z,93.35
2023-03-17T06:05:01.948Z,92.69
2023-03-17T06:06:01.912Z,92.02
2023-03-17T06:07:01.939Z,91.60
2023-03-17T06:08:01.915Z,91.08
2023-03-17T06:09:01.922Z,90.77
2023-03-17T06:10:01.880Z,90.56
2023-03-17T06:11:01.902Z,90.45
2023-03-17T06:12:01.878Z,90.35
2023-03-17T06:13:03.895Z,90.25
2023-03-17T06:14:01.863Z,90.25
2023-03-17T06:15:01.851Z,90.25
2023-03-17T06:16:01.832Z,90.35
2023-03-17T06:17:01.812Z,90.35
2023-03-17T06:18:01.789Z,90.45
2023-03-17T06:19:01.797Z,90.56
2023-03-17T06:20:01.776Z,90.66
2023-03-17T06:21:01.788Z,90.77
2023-03-17T06:22:01.792Z,90.87
2023-03-17T06:23:05.261Z,90.87
2023-03-17T06:24:01.722Z,90.97
2023-03-17T06:25:01.735Z,91.02
2023-03-17T06:26:01.865Z,91.08
2023-03-17T06:27:01.748Z,91.08
2023-03-17T06:28:01.677Z,91.18
2023-03-17T06:29:01.691Z,91.18
2023-03-17T06:30:01.656Z,91.18
2023-03-17T06:31:01.754Z,91.29
2023-03-17T06:32:18.817Z,91.39
2023-03-17T06:33:02.735Z,91.39
2023-03-17T06:34:01.616Z,91.39
2023-03-17T06:35:01.625Z,91.39
2023-03-17T06:36:01.625Z,91.39
2023-03-17T06:37:01.596Z,91.29
2023-03-17T06:38:01.573Z,91.29
2023-03-17T06:39:01.607Z,91.29
2023-03-17T06:40:01.552Z,91.25
2023-03-17T06:41:01.567Z,91.25
2023-03-17T06:42:01.507Z,91.04
2023-03-17T06:43:01.552Z,91.04
2023-03-17T06:44:01.574Z,91.04
2023-03-17T06:45:01.522Z,91.00
2023-03-17T06:46:01.475Z,90.79
2023-03-17T06:47:01.490Z,90.58
2023-03-17T06:48:01.456Z,90.64
2023-03-17T06:49:01.463Z,90.54
2023-03-17T06:50:01.465Z,90.44
2023-03-17T06:51:02.232Z,90.19
2023-03-17T06:52:01.569Z,89.98
2023-03-17T06:53:01.584Z,89.76
2023-03-17T06:54:01.415Z,89.66
2023-03-17T06:55:01.395Z,89.10
2023-03-17T06:56:01.367Z,88.68
2023-03-17T06:57:01.415Z,88.37
2023-03-17T06:58:01.353Z,88.23
2023-03-17T06:59:01.353Z,88.12
2023-03-17T07:00:01.305Z,88.12
2023-03-17T07:01:01.355Z,87.98
2023-03-17T07:02:01.320Z,87.88
2023-03-17T07:03:01.299Z,87.77
2023-03-17T07:04:01.285Z,87.66
2023-03-17T07:05:01.372Z,87.42
2023-03-17T07:06:01.232Z,87.01
2023-03-17T07:07:01.261Z,87.11
2023-03-17T07:08:01.243Z,87.07
2023-03-17T07:09:02.333Z,86.96
2023-03-17T07:10:01.203Z,86.76
2023-03-17T07:11:01.344Z,86.51
2023-03-17T07:12:01.182Z,86.19
2023-03-17T07:13:01.781Z,85.85
2023-03-17T07:14:01.183Z,85.74
2023-03-17T07:15:01.216Z,85.64
2023-03-17T07:16:01.189Z,85.39
2023-03-17T07:17:01.150Z,85.19
2023-03-17T07:18:01.251Z,84.77
2023-03-17T07:19:01.147Z,84.42
2023-03-17T07:20:01.138Z,84.11
2023-03-17T07:21:01.112Z,83.17
2023-03-17T07:22:01.101Z,82.62
2023-03-17T07:23:01.136Z,82.31
2023-03-17T07:24:01.045Z,81.54
2023-03-17T07:25:01.077Z,81.54
2023-03-17T07:26:01.032Z,80.82
2023-03-17T07:27:01.078Z,78.40
2023-03-17T07:28:01.009Z,77.74
2023-03-17T07:29:01.495Z,77.84
2023-03-17T07:30:01.010Z,78.02
2023-03-17T07:31:01.062Z,77.39
2023-03-17T07:32:00.988Z,76.53
2023-03-17T07:33:01.056Z,75.91
2023-03-17T07:34:00.973Z,75.57
2023-03-17T07:35:00.981Z,75.15
2023-03-17T07:36:00.957Z,75.15
2023-03-17T07:37:00.972Z,75.15
2023-03-17T07:38:00.909Z,75.22
2023-03-17T07:39:00.967Z,75.12
2023-03-17T07:40:00.868Z,73.05
2023-03-17T07:41:01.034Z,70.98
2023-03-17T07:42:00.929Z,70.23
2023-03-17T07:43:00.940Z,70.64
2023-03-17T07:44:00.998Z,71.98
2023-03-17T07:45:00.921Z,72.06
2023-03-17T07:46:00.898Z,71.75
2023-03-17T07:47:00.928Z,71.33
2023-03-17T07:48:00.847Z,70.89
2023-03-17T07:49:00.996Z,69.24
2023-03-17T07:50:00.881Z,69.03
2023-03-17T07:51:00.856Z,69.82
2023-03-17T07:52:00.827Z,70.65
2023-03-17T07:53:00.810Z,70.13
2023-03-17T07:54:00.794Z,70.34
2023-03-17T07:55:00.807Z,70.31
2023-03-17T07:56:00.758Z,69.69
2023-03-17T07:57:00.756Z,69.07
2023-03-17T07:58:00.856Z,68.96
2023-03-17T07:59:00.719Z,67.11
2023-03-17T08:00:00.650Z,66.87
2023-03-17T08:01:00.724Z,66.67
2023-03-17T08:02:00.765Z,66.15
2023-03-17T08:03:09.830Z,66.36
2023-03-17T08:04:01.813Z,65.40
2023-03-17T08:05:00.687Z,65.30
2023-03-17T08:06:00.714Z,66.22
2023-03-17T08:07:01.471Z,64.86
2023-03-17T08:08:00.608Z,65.89
2023-03-17T08:09:00.654Z,64.44
2023-03-17T08:10:00.605Z,64.41
2023-03-17T08:11:00.675Z,64.11
2023-03-17T08:12:00.580Z,64.21
2023-03-17T08:13:00.633Z,63.97
2023-03-17T08:14:00.574Z,64.04
2023-03-17T08:15:00.572Z,63.84
2023-03-17T08:16:00.463Z,64.46
2023-03-17T08:17:00.705Z,63.81
2023-03-17T08:18:00.552Z,63.98
2023-03-17T08:19:00.568Z,62.96
2023-03-17T08:20:00.489Z,60.70
2023-03-17T08:21:00.545Z,60.57
2023-03-17T08:22:01.174Z,61.18
2023-03-17T08:23:00.511Z,60.85
2023-03-17T08:24:00.413Z,61.26
2023-03-17T08:25:00.506Z,60.72
2023-03-17T08:26:00.452Z,59.48
2023-03-17T08:27:01.002Z,58.77
2023-03-17T08:28:01.095Z,59.25
2023-03-17T08:29:00.414Z,59.05
2023-03-17T08:30:00.433Z,59.46
2023-03-17T08:31:00.458Z,59.33
2023-03-17T08:32:00.382Z,59.12
2023-03-17T08:33:00.355Z,58.00
2023-03-17T08:34:00.481Z,57.89
2023-03-17T08:35:00.440Z,57.05
2023-03-17T08:36:00.380Z,56.74
2023-03-17T08:37:00.342Z,57.56
2023-03-17T08:38:00.286Z,57.76
2023-03-17T08:39:00.331Z,57.46
2023-03-17T08:40:00.272Z,56.02
2023-03-17T08:41:00.277Z,56.23
2023-03-17T08:42:00.256Z,57.15
2023-03-17T08:43:00.233Z,56.64
2023-03-17T08:44:00.222Z,57.76
2023-03-17T08:45:00.399Z,57.46
2023-03-17T08:46:00.246Z,57.15
2023-03-17T08:47:00.335Z,56.64
2023-03-17T08:48:00.864Z,56.95
2023-03-17T08:49:00.176Z,56.43
2023-03-17T08:50:00.148Z,57.25
2023-03-17T08:51:00.179Z,57.76
2023-03-17T08:52:00.133Z,57.87
2023-03-17T08:53:00.100Z,57.25
2023-03-17T08:54:00.034Z,57.66
2023-03-17T08:55:00.046Z,57.35
2023-03-17T08:56:00.013Z,57.33
2023-03-17T08:57:00.077Z,56.92
2023-03-17T08:58:00.049Z,56.82
2023-03-17T08:59:00.001Z,56.61
2023-03-17T08:59:59.966Z,56.89
2023-03-17T09:01:00.047Z,56.69
2023-03-17T09:01:59.955Z,56.07
2023-03-17T09:03:00.129Z,56.97
2023-03-17T09:03:59.973Z,56.87
2023-03-17T09:04:59.934Z,55.84
2023-03-17T09:05:59.911Z,56.02
2023-03-17T09:07:03.784Z,56.23
2023-03-17T09:08:00.818Z,55.49
2023-03-17T09:08:59.945Z,55.08
2023-03-17T09:09:59.876Z,55.08
2023-03-17T09:10:59.874Z,55.58
2023-03-17T09:11:59.865Z,55.28
2023-03-17T09:12:59.845Z,55.69
2023-03-17T09:13:59.824Z,54.87
2023-03-17T09:14:59.912Z,55.56
2023-03-17T09:15:59.829Z,55.36
2023-03-17T09:16:59.816Z,55.36
2023-03-17T09:17:59.985Z,55.33
2023-03-17T09:18:59.819Z,54.21
2023-03-17T09:19:59.765Z,54.11
2023-03-17T09:20:59.759Z,54.31
2023-03-17T09:21:59.724Z,54.31
2023-03-17T09:22:59.746Z,54.92
2023-03-17T09:24:02.203Z,53.70
2023-03-17T09:24:59.717Z,54.18
2023-03-17T09:25:59.674Z,54.49
2023-03-17T09:26:59.744Z,54.69
2023-03-17T09:28:00.459Z,54.28
2023-03-17T09:29:02.486Z,52.62
2023-03-17T09:29:59.668Z,52.32
2023-03-17T09:30:59.720Z,52.32
2023-03-17T09:31:59.633Z,52.32
2023-03-17T09:32:59.665Z,52.01
2023-03-17T09:33:59.604Z,52.29
2023-03-17T09:34:59.599Z,52.81
2023-03-17T09:35:59.611Z,52.29
2023-03-17T09:36:59.575Z,51.89
2023-03-17T09:37:59.565Z,51.46
2023-03-17T09:38:59.563Z,51.76
2023-03-17T09:39:59.527Z,51.05
2023-03-17T09:40:59.547Z,51.86
2023-03-17T09:41:59.533Z,52.37
2023-03-17T09:42:59.483Z,50.84
2023-03-17T09:43:59.491Z,50.82
2023-03-17T09:44:59.487Z,51.13
2023-03-17T09:45:59.540Z,50.01
2023-03-17T09:46:59.444Z,50.09
2023-03-17T09:47:59.465Z,50.29
2023-03-17T09:48:59.486Z,50.39
2023-03-17T09:49:59.444Z,50.29
2023-03-17T09:50:59.442Z,49.48
2023-03-17T09:51:59.415Z,50.49
2023-03-17T09:53:05.977Z,49.45
2023-03-17T09:54:25.833Z,48.74
2023-03-17T09:55:07.467Z,48.84
2023-03-17T09:55:59.373Z,48.74
2023-03-17T09:56:59.371Z,49.53
2023-03-17T09:57:59.356Z,48.41
2023-03-17T09:58:59.347Z,48.11
2023-03-17T09:59:59.303Z,48.92
2023-03-17T10:00:59.395Z,47.88
2023-03-17T10:01:59.511Z,47.98
2023-03-17T10:02:59.522Z,48.90
2023-03-17T10:03:59.492Z,48.28
2023-03-17T10:04:59.506Z,48.39
2023-03-17T10:05:59.393Z,48.67
2023-03-17T10:06:59.374Z,47.86
2023-03-17T10:07:59.394Z,47.05
2023-03-17T10:08:59.600Z,48.16
2023-03-17T10:09:59.571Z,48.27
2023-03-17T10:10:59.418Z,47.14
2023-03-17T10:11:59.353Z,47.35
2023-03-17T10:12:59.384Z,47.35
2023-03-17T10:13:59.363Z,47.25
2023-03-17T10:14:59.320Z,47.55
2023-03-17T10:15:59.376Z,46.94
2023-03-17T10:16:59.298Z,47.14
2023-03-17T10:17:59.299Z,46.64
2023-03-17T10:18:59.309Z,47.35
2023-03-17T10:19:59.236Z,47.43
2023-03-17T10:20:59.253Z,46.31
2023-03-17T10:21:59.220Z,46.72
2023-03-17T10:22:59.312Z,47.63
2023-03-17T10:23:59.228Z,46.31
2023-03-17T10:25:00.171Z,46.92
2023-03-17T10:25:59.177Z,47.53
2023-03-17T10:26:59.243Z,46.41
2023-03-17T10:27:59.220Z,47.13
2023-03-17T10:28:59.258Z,47.22
2023-03-17T10:29:59.779Z,46.92
2023-03-17T10:30:58.971Z,46.59
2023-03-17T10:31:59.137Z,46.21
2023-03-17T10:32:59.070Z,47.13
2023-03-17T10:33:58.963Z,47.81
2023-03-17T10:34:58.913Z,48.02
2023-03-17T10:35:58.952Z,46.90
2023-03-17T10:36:58.901Z,46.70
2023-03-17T10:38:13.607Z,47.18
2023-03-17T10:38:59.876Z,46.37
2023-03-17T10:39:58.852Z,46.78
2023-03-17T10:40:58.907Z,47.28
2023-03-17T10:41:58.824Z,46.27
2023-03-17T10:42:58.822Z,46.78
2023-03-17T10:43:58.805Z,46.67
2023-03-17T10:44:58.801Z,47.28
2023-03-17T10:45:58.828Z,47.59
2023-03-17T10:46:58.813Z,46.17
2023-03-17T10:47:58.764Z,45.46
2023-03-17T10:48:58.766Z,46.17
2023-03-17T10:49:59.648Z,46.78
2023-03-17T10:50:59.548Z,47.18
2023-03-17T10:51:58.734Z,46.78
2023-03-17T10:52:58.752Z,47.08
2023-03-17T10:53:58.727Z,47.28
2023-03-17T10:54:58.707Z,47.08
2023-03-17T10:55:58.705Z,47.08
2023-03-17T10:56:59.271Z,46.67
2023-03-17T10:57:58.674Z,46.17
2023-03-17T10:58:58.645Z,46.47
2023-03-17T10:59:58.652Z,46.06
2023-03-17T11:00:58.670Z,46.57
2023-03-17T11:01:58.652Z,46.57
2023-03-17T11:02:58.638Z,46.47
2023-03-17T11:03:58.649Z,46.78
2023-03-17T11:04:58.677Z,47.08
2023-03-17T11:05:58.570Z,46.06
2023-03-17T11:06:58.575Z,46.70
2023-03-17T11:07:58.570Z,47.20
2023-03-17T11:08:58.549Z,46.09
2023-03-17T11:09:58.543Z,47.30
2023-03-17T11:10:58.823Z,48.11
2023-03-17T11:11:58.500Z,47.91
2023-03-17T11:12:58.521Z,46.67
2023-03-17T11:13:58.448Z,46.98
2023-03-17T11:14:58.484Z,46.27
2023-03-17T11:15:58.490Z,46.39
2023-03-17T11:16:58.448Z,47.28
2023-03-17T11:17:58.420Z,46.57
2023-03-17T11:18:58.436Z,46.98
2023-03-17T11:19:58.391Z,47.08
2023-03-17T11:20:58.432Z,46.47
2023-03-17T11:21:58.378Z,47.38
2023-03-17T11:22:58.394Z,47.38
2023-03-17T11:23:58.361Z,46.88
2023-03-17T11:24:58.519Z,47.06
2023-03-17T11:25:58.334Z,46.95
2023-03-17T11:26:59.299Z,46.35
2023-03-17T11:27:58.340Z,47.06
2023-03-17T11:28:58.329Z,46.75
2023-03-17T11:29:58.343Z,46.35
2023-03-17T11:30:59.046Z,46.45
2023-03-17T11:31:58.313Z,46.53
2023-03-17T11:32:58.344Z,46.53
2023-03-17T11:33:58.247Z,46.63
2023-03-17T11:34:58.248Z,46.33
2023-03-17T11:35:58.245Z,46.33
2023-03-17T11:36:59.998Z,46.14
2023-03-17T11:37:58.191Z,46.43
2023-03-17T11:38:58.233Z,46.63
2023-03-17T11:39:58.177Z,46.63
2023-03-17T11:40:58.188Z,46.43
2023-03-17T11:41:58.161Z,46.94
2023-03-17T11:42:58.177Z,47.14
2023-03-17T11:43:58.131Z,46.33
2023-03-17T11:44:58.172Z,46.61
2023-03-17T11:45:58.132Z,47.02
2023-03-17T11:46:58.130Z,46.10
2023-03-17T11:47:59.909Z,46.43
2023-03-17T11:48:58.097Z,45.82
2023-03-17T11:49:58.060Z,46.12
2023-03-17T11:50:58.776Z,45.72
2023-03-17T11:51:58.139Z,46.63
2023-03-17T11:52:58.124Z,46.73
2023-03-17T11:53:58.011Z,46.30
2023-03-17T11:54:58.982Z,45.90
2023-03-17T11:55:58.055Z,46.00
2023-03-17T11:56:58.099Z,46.30
2023-03-17T11:57:57.997Z,47.22
2023-03-17T11:58:57.992Z,47.31
2023-03-17T11:59:57.961Z,46.61
2023-03-17T12:00:57.968Z,46.20
2023-03-17T12:01:58.142Z,46.48
2023-03-17T12:02:57.960Z,45.57
2023-03-17T12:03:58.757Z,45.57
2023-03-17T12:04:57.950Z,46.28
2023-03-17T12:05:57.953Z,45.98
2023-03-17T12:06:57.891Z,46.18
2023-03-17T12:07:57.885Z,46.28
2023-03-17T12:08:57.893Z,44.96
2023-03-17T12:09:57.853Z,44.66
2023-03-17T12:10:57.926Z,45.07
2023-03-17T12:11:58.029Z,45.57
2023-03-17T12:12:58.008Z,45.07
2023-03-17T12:13:57.820Z,45.47
2023-03-17T12:14:57.809Z,45.17
2023-03-17T12:15:57.795Z,45.07
2023-03-17T12:16:57.780Z,45.07
2023-03-17T12:17:57.755Z,44.76
2023-03-17T12:18:57.771Z,45.57
2023-03-17T12:19:57.725Z,45.27
2023-03-17T12:20:57.746Z,45.07
2023-03-17T12:21:57.724Z,45.07
2023-03-17T12:22:57.747Z,44.87
2023-03-17T12:23:57.741Z,45.67
2023-03-17T12:24:57.732Z,45.75
2023-03-17T12:25:57.685Z,45.55
2023-03-17T12:26:57.720Z,45.65
2023-03-17T12:27:57.682Z,44.84
2023-03-17T12:28:57.809Z,44.34
2023-03-17T12:29:57.709Z,45.15
2023-03-17T12:30:57.675Z,46.26
2023-03-17T12:31:57.724Z,45.83
2023-03-17T12:32:57.725Z,45.63
2023-03-17T12:33:57.567Z,44.40
2023-03-17T12:34:57.642Z,45.00
2023-03-17T12:35:57.632Z,44.78
2023-03-17T12:36:57.574Z,44.07
2023-03-17T12:37:57.554Z,43.37
2023-03-17T12:38:57.537Z,43.06
2023-03-17T12:39:57.513Z,43.46
2023-03-17T12:40:57.535Z,43.85
2023-03-17T12:41:57.484Z,44.15
2023-03-17T12:42:57.520Z,44.25
2023-03-17T12:43:57.465Z,44.56
2023-03-17T12:44:57.530Z,44.03
2023-03-17T12:45:57.481Z,43.93
2023-03-17T12:46:57.445Z,43.43
2023-03-17T12:47:57.425Z,43.02
2023-03-17T12:48:57.440Z,44.03
2023-03-17T12:49:57.396Z,43.55
2023-03-17T12:50:57.406Z,43.75
2023-03-17T12:51:57.685Z,44.46